createdAt,value
2019-03-09T00:01:18.094Z,16.05
2019-03-09T00:04:06.818Z,16.12
2019-03-09T00:06:55.859Z,17.92
2019-03-09T00:09:45.151Z,16.53
2019-03-09T00:12:34.548Z,13.98
2019-03-09T00:15:23.955Z,15.68
2019-03-09T00:18:13.602Z,15.48
2019-03-09T00:21:02.663Z,22.93
2019-03-09T00:23:52.153Z,13.93
2019-03-09T00:26:43.453Z,15.05
2019-03-09T00:29:42.714Z,12.47
2019-03-09T00:32:33.464Z,18.73
2019-03-09T00:35:22.093Z,18.17
2019-03-09T00:38:11.691Z,22.03
2019-03-09T00:41:00.614Z,23.77
2019-03-09T00:43:49.825Z,11.30
2019-03-09T00:46:39.180Z,16.80
2019-03-09T00:49:28.668Z,16.37
2019-03-09T00:52:18.245Z,19.23
2019-03-09T00:55:11.494Z,19.25
2019-03-09T00:58:00.572Z,17.25
2019-03-09T01:00:49.615Z,15.60
2019-03-09T01:03:38.495Z,21.02
2019-03-09T01:06:27.192Z,20.00
2019-03-09T01:09:16.216Z,16.85
2019-03-09T01:12:05.657Z,15.63
2019-03-09T01:14:54.656Z,14.03
2019-03-09T01:17:43.554Z,16.87
2019-03-09T01:20:32.983Z,15.93
2019-03-09T01:23:22.570Z,15.10
2019-03-09T01:26:12.025Z,12.80
2019-03-09T01:29:01.620Z,16.97
2019-03-09T01:31:51.044Z,11.80
2019-03-09T01:34:40.360Z,15.32
2019-03-09T01:37:29.775Z,10.23
2019-03-09T01:40:19.314Z,12.13
2019-03-09T01:43:08.379Z,18.07
2019-03-09T01:45:57.541Z,11.18
2019-03-09T01:48:46.961Z,21.10
2019-03-09T01:51:36.799Z,13.20
2019-03-09T01:54:26.168Z,8.80
2019-03-09T01:57:15.509Z,11.50
2019-03-09T02:00:12.079Z,11.03
2019-03-09T02:03:01.102Z,12.90
2019-03-09T02:05:50.380Z,8.98
2019-03-09T02:08:39.860Z,12.25
2019-03-09T02:11:29.577Z,11.47
2019-03-09T02:14:18.442Z,14.78
2019-03-09T02:17:08.177Z,11.08
2019-03-09T02:19:57.141Z,15.27
2019-03-09T02:22:46.827Z,15.40
2019-03-09T02:25:36.120Z,13.53
2019-03-09T02:28:25.216Z,15.90
2019-03-09T02:31:14.661Z,14.25
2019-03-09T02:34:03.709Z,13.57
2019-03-09T02:36:52.642Z,16.37
2019-03-09T02:39:43.112Z,11.85
2019-03-09T02:42:32.344Z,15.18
2019-03-09T02:45:24.995Z,10.15
2019-03-09T02:48:13.763Z,13.50
2019-03-09T02:51:02.906Z,12.07
2019-03-09T02:53:52.295Z,13.95
2019-03-09T02:56:41.327Z,9.73
2019-03-09T02:59:30.324Z,11.93
2019-03-09T03:02:24.198Z,10.72
2019-03-09T03:05:13.839Z,11.97
2019-03-09T03:08:02.941Z,12.07
2019-03-09T03:10:51.708Z,13.62
2019-03-09T03:13:41.178Z,13.35
2019-03-09T03:16:30.588Z,12.00
2019-03-09T03:19:19.311Z,13.25
2019-03-09T03:22:08.655Z,20.75
2019-03-09T03:24:58.151Z,13.13
2019-03-09T03:27:47.618Z,16.40
2019-03-09T03:30:37.401Z,16.77
2019-03-09T03:33:26.797Z,14.07
2019-03-09T03:36:15.843Z,12.82
2019-03-09T03:39:06.761Z,15.55
2019-03-09T03:41:55.526Z,14.35
2019-03-09T03:44:44.937Z,16.52
2019-03-09T03:47:34.021Z,16.95
2019-03-09T03:50:23.382Z,18.67
2019-03-09T03:53:12.311Z,18.37
2019-03-09T03:56:01.546Z,17.93
2019-03-09T03:58:50.566Z,21.07
2019-03-09T04:01:39.135Z,16.67
2019-03-09T04:04:27.897Z,21.82
2019-03-09T04:07:17.407Z,18.40
2019-03-09T04:10:11.121Z,17.15
2019-03-09T04:13:00.439Z,17.47
2019-03-09T04:15:50.031Z,19.55
2019-03-09T04:18:39.089Z,21.05
2019-03-09T04:21:28.551Z,19.90
2019-03-09T04:24:17.289Z,19.45
2019-03-09T04:27:08.131Z,20.02
2019-03-09T04:29:57.372Z,19.62
2019-03-09T04:32:46.981Z,19.00
2019-03-09T04:35:35.548Z,20.80
2019-03-09T04:38:24.164Z,20.48
2019-03-09T04:41:13.158Z,21.90
2019-03-09T04:44:02.601Z,21.48
2019-03-09T04:46:51.392Z,16.65
2019-03-09T04:49:40.626Z,16.43
2019-03-09T04:52:29.360Z,20.17
2019-03-09T04:55:18.660Z,17.50
2019-03-09T04:58:07.680Z,18.27
2019-03-09T05:00:57.208Z,16.42
2019-03-09T05:03:49.199Z,14.45
2019-03-09T05:06:38.394Z,16.87
2019-03-09T05:09:58.692Z,17.45
2019-03-09T05:12:52.510Z,15.15
2019-03-09T05:15:41.426Z,18.00
2019-03-09T05:18:30.433Z,12.25
2019-03-09T05:21:20.271Z,13.13
2019-03-09T05:24:09.325Z,15.08
2019-03-09T05:26:58.706Z,11.80
2019-03-09T05:29:48.025Z,10.25
2019-03-09T05:32:37.349Z,8.38
2019-03-09T05:35:26.402Z,9.20
2019-03-09T05:38:15.987Z,10.30
2019-03-09T05:41:05.392Z,6.97
2019-03-09T05:43:54.746Z,9.85
2019-03-09T05:46:43.535Z,9.28
2019-03-09T05:49:32.762Z,6.95
2019-03-09T05:52:30.946Z,9.78
2019-03-09T05:55:19.963Z,6.62
2019-03-09T05:58:09.237Z,10.80
2019-03-09T06:00:58.482Z,6.50
2019-03-09T06:03:47.514Z,7.83
2019-03-09T06:06:36.615Z,10.98
2019-03-09T06:09:25.528Z,8.63
2019-03-09T06:12:14.537Z,6.17
2019-03-09T06:15:03.769Z,8.25
2019-03-09T06:17:53.069Z,12.23
2019-03-09T06:20:42.316Z,12.40
2019-03-09T06:23:31.865Z,13.78
2019-03-09T06:26:20.716Z,6.33
2019-03-09T06:29:10.010Z,12.85
2019-03-09T06:32:35.948Z,18.85
2019-03-09T06:35:25.410Z,11.40
2019-03-09T06:38:31.129Z,15.80
2019-03-09T06:41:33.852Z,11.60
2019-03-09T06:44:25.704Z,8.08
2019-03-09T06:47:14.991Z,11.43
2019-03-09T06:50:10.060Z,10.70
2019-03-09T06:52:58.998Z,17.50
2019-03-09T06:55:48.492Z,13.45
2019-03-09T06:58:37.430Z,12.47
2019-03-09T07:01:26.932Z,15.57
2019-03-09T07:04:15.786Z,14.03
2019-03-09T07:07:05.363Z,16.10
2019-03-09T07:09:54.255Z,13.53
2019-03-09T07:12:44.006Z,7.40
2019-03-09T07:15:36.962Z,12.20
2019-03-09T07:18:26.129Z,15.25
2019-03-09T07:21:15.298Z,10.20
2019-03-09T07:43:41.054Z,25.00
2019-03-09T07:46:30.505Z,32.42
2019-03-09T07:52:34.974Z,23.73
2019-03-09T07:55:24.268Z,22.42
2019-03-09T07:58:13.820Z,24.12
2019-03-09T08:01:02.656Z,32.73
2019-03-09T08:03:52.255Z,23.20
2019-03-09T08:06:40.782Z,21.43
2019-03-09T08:09:30.078Z,27.70
2019-03-09T08:12:18.802Z,24.12
2019-03-09T08:15:14.228Z,26.25
2019-03-09T08:18:03.120Z,26.02
2019-03-09T08:20:52.211Z,19.60
2019-03-09T08:23:41.438Z,20.68
2019-03-09T08:26:31.174Z,19.80
2019-03-09T08:29:20.590Z,29.02
2019-03-09T08:32:09.591Z,24.72
2019-03-09T08:34:59.136Z,24.15
2019-03-09T08:37:49.909Z,20.02
2019-03-09T08:40:38.857Z,26.57
2019-03-09T08:43:27.966Z,17.70
2019-03-09T08:46:17.414Z,27.25
2019-03-09T08:49:06.923Z,14.75
2019-03-09T08:51:56.215Z,20.72
2019-03-09T08:54:45.473Z,21.20
2019-03-09T08:57:34.450Z,16.48
2019-03-09T09:00:29.909Z,23.20
2019-03-09T09:03:17.973Z,14.17
2019-03-09T09:06:06.946Z,13.75
2019-03-09T09:08:56.201Z,19.73
2019-03-09T09:11:45.357Z,16.62
2019-03-09T09:14:35.273Z,17.87
2019-03-09T09:17:24.197Z,14.25
2019-03-09T09:20:28.443Z,19.52
2019-03-09T09:23:17.429Z,15.08
2019-03-09T09:26:06.674Z,16.30
2019-03-09T09:28:55.900Z,13.38
2019-03-09T09:31:44.779Z,15.93
2019-03-09T09:34:34.149Z,12.43
2019-03-09T09:37:23.433Z,19.10
2019-03-09T09:40:22.949Z,14.68
2019-03-09T09:43:11.934Z,14.30
2019-03-09T09:46:00.561Z,10.43
2019-03-09T09:48:50.117Z,12.68
2019-03-09T09:51:39.421Z,11.30
2019-03-09T09:54:28.982Z,15.75
2019-03-09T09:57:18.211Z,14.33
2019-03-09T10:00:26.569Z,8.80
2019-03-09T10:03:15.649Z,13.70
2019-03-09T10:06:06.007Z,19.77
2019-03-09T10:08:55.744Z,15.65
2019-03-09T10:11:45.077Z,16.17
2019-03-09T10:14:34.654Z,21.63
2019-03-09T10:17:23.795Z,16.73
2019-03-09T10:20:14.331Z,16.73
2019-03-09T10:23:04.915Z,17.45
2019-03-09T10:25:53.677Z,16.70
2019-03-09T10:31:30.790Z,17.50
2019-03-09T10:37:08.911Z,14.15
2019-03-09T10:39:58.083Z,22.60
2019-03-09T11:47:19.866Z,15.05
2019-03-09T11:50:12.084Z,18.60
2019-03-09T12:01:27.954Z,14.00
2019-03-09T13:31:17.059Z,11.40
2019-03-09T14:35:52.996Z,18.70
2019-03-09T14:38:42.085Z,15.50
2019-03-09T14:47:07.859Z,18.30
2019-03-09T14:55:33.273Z,16.00
2019-03-09T14:58:22.047Z,11.53
2019-03-09T15:01:10.993Z,21.37
2019-03-09T15:04:00.074Z,12.30
2019-03-09T15:06:49.655Z,17.55
2019-03-09T15:09:38.914Z,14.10
2019-03-09T15:12:28.503Z,9.60
2019-03-09T15:15:20.370Z,9.58
2019-03-09T15:18:10.099Z,17.40
2019-03-09T15:20:59.225Z,11.68
2019-03-09T15:23:47.826Z,8.73
2019-03-09T15:26:36.773Z,15.28
2019-03-09T15:29:26.363Z,10.28
2019-03-09T15:32:15.221Z,12.43
2019-03-09T15:35:06.118Z,20.17
2019-03-09T15:37:55.816Z,14.20
2019-03-09T15:40:44.901Z,7.67
2019-03-09T15:43:34.244Z,15.48
2019-03-09T15:46:23.556Z,12.18
2019-03-09T15:49:13.093Z,10.65
2019-03-09T15:52:03.893Z,7.70
2019-03-09T15:54:52.896Z,5.95
2019-03-09T15:57:42.449Z,8.43
2019-03-09T16:00:31.584Z,10.80
2019-03-09T16:03:20.976Z,4.60
2019-03-09T16:06:09.778Z,16.27
2019-03-09T16:08:59.407Z,6.40
2019-03-09T16:11:48.367Z,10.05
2019-03-09T16:14:37.953Z,7.53
2019-03-09T16:17:27.016Z,6.35
2019-03-09T16:20:21.096Z,2.95
2019-03-09T16:23:10.580Z,4.30
2019-03-09T16:25:59.592Z,2.70
2019-03-09T16:28:49.212Z,5.55
2019-03-09T16:31:38.142Z,4.85
2019-03-09T16:34:27.446Z,3.35
2019-03-09T16:37:16.710Z,7.90
2019-03-09T16:40:12.869Z,5.33
2019-03-09T16:43:02.426Z,14.78
2019-03-09T16:45:51.488Z,7.28
2019-03-09T16:48:40.959Z,4.85
2019-03-09T16:51:29.547Z,6.95
2019-03-09T16:54:18.887Z,4.42
2019-03-09T16:57:07.976Z,6.12
2019-03-09T16:59:57.430Z,5.55
2019-03-09T17:02:46.903Z,8.85
2019-03-09T17:05:35.743Z,7.00
2019-03-09T17:08:24.920Z,8.58
2019-03-09T17:11:14.025Z,9.93
2019-03-09T17:14:03.564Z,8.68
2019-03-09T17:16:52.980Z,8.30
2019-03-09T17:19:42.373Z,6.25
2019-03-09T17:22:33.154Z,14.00
2019-03-09T17:25:21.622Z,8.03
2019-03-09T17:28:11.043Z,9.20
2019-03-09T17:31:00.223Z,5.15
2019-03-09T17:33:49.887Z,8.10
2019-03-09T17:36:38.722Z,8.13
2019-03-09T17:39:28.110Z,8.18
2019-03-09T17:42:17.486Z,7.77
2019-03-09T17:45:13.982Z,15.45
2019-03-09T17:48:02.698Z,7.28
2019-03-09T17:50:51.432Z,2.27
2019-03-09T17:53:40.707Z,7.08
2019-03-09T17:56:29.130Z,2.08
2019-03-09T17:59:18.013Z,2.85
2019-03-09T18:02:07.112Z,3.85
2019-03-09T18:04:56.350Z,1.40
2019-03-09T18:07:45.565Z,1.53
2019-03-09T18:10:45.441Z,3.55
2019-03-09T18:13:34.618Z,5.33
2019-03-09T18:16:23.745Z,1.82
2019-03-09T18:19:13.088Z,10.00
2019-03-09T18:22:01.895Z,2.65
2019-03-09T18:24:51.480Z,5.97
2019-03-09T18:27:40.951Z,2.45
2019-03-09T18:30:30.434Z,3.90
2019-03-09T18:33:20.008Z,3.00
2019-03-09T18:36:08.989Z,5.10
2019-03-09T18:38:58.386Z,1.40
2019-03-09T18:41:47.019Z,8.90
2019-03-09T18:44:36.364Z,4.72
2019-03-09T18:47:25.251Z,7.87
2019-03-09T18:50:14.810Z,19.45
2019-03-09T18:53:03.819Z,3.57
2019-03-09T18:55:59.128Z,3.67
2019-03-09T18:58:43.554Z,4.40
2019-03-09T19:01:33.008Z,11.45
2019-03-09T19:04:22.288Z,10.40
2019-03-09T19:07:11.289Z,6.28
2019-03-09T19:10:00.548Z,11.55
2019-03-09T19:12:48.960Z,16.30
2019-03-09T19:15:37.594Z,10.05
2019-03-09T19:18:26.792Z,5.60
2019-03-09T19:21:16.050Z,10.60
2019-03-09T19:24:04.892Z,14.53
2019-03-09T19:26:54.296Z,8.90
2019-03-09T19:29:43.970Z,8.05
2019-03-09T19:32:33.163Z,17.48
2019-03-09T19:35:22.490Z,14.25
2019-03-09T19:38:11.291Z,7.37
2019-03-09T19:41:00.704Z,18.60
2019-03-09T19:43:49.883Z,13.35
2019-03-09T19:46:38.883Z,18.07
2019-03-09T19:49:28.010Z,13.53
2019-03-09T19:52:16.882Z,14.43
2019-03-09T19:55:08.027Z,16.75
2019-03-09T19:57:57.026Z,24.77
2019-03-09T20:00:46.333Z,13.93
2019-03-09T20:03:35.080Z,10.28
2019-03-09T20:06:24.770Z,12.45
2019-03-09T20:09:15.643Z,13.03
2019-03-09T20:12:05.351Z,14.33
2019-03-09T20:14:54.727Z,14.07
2019-03-09T20:17:45.758Z,20.60
2019-03-09T20:23:23.050Z,18.10
2019-03-09T21:02:45.026Z,15.75
2019-03-09T21:05:33.931Z,12.10
2019-03-09T21:11:11.620Z,19.05
2019-03-09T22:52:17.351Z,17.30
2019-03-09T23:14:47.022Z,9.10
2019-03-09T23:17:36.106Z,23.10
2019-03-09T23:20:25.952Z,15.30
2019-03-09T23:23:14.921Z,14.35
2019-03-09T23:26:03.497Z,9.30
2019-03-09T23:28:52.631Z,26.80
2019-03-09T23:31:41.631Z,16.35
2019-03-09T23:34:30.763Z,21.80
2019-03-09T23:37:19.688Z,15.13
2019-03-09T23:40:17.133Z,15.83
2019-03-09T23:43:06.122Z,14.95
2019-03-09T23:45:55.414Z,6.63
2019-03-09T23:48:44.175Z,9.25
2019-03-09T23:51:33.096Z,11.38
2019-03-09T23:54:21.799Z,11.80
2019-03-09T23:57:11.230Z,11.47
2019-03-09T23:59:59.821Z,12.28
